createdAt,value
2018-02-10T00:00:05.419Z,-0.10
2018-02-10T00:01:10.373Z,-0.10
2018-02-10T00:02:10.911Z,-0.10
2018-02-10T00:03:06.027Z,-0.10
2018-02-10T00:04:08.396Z,-0.10
2018-02-10T00:05:05.868Z,-0.10
2018-02-10T00:06:10.935Z,-0.10
2018-02-10T00:07:07.894Z,-0.10
2018-02-10T00:08:05.535Z,-0.10
2018-02-10T00:09:05.376Z,-0.10
2018-02-10T00:10:05.460Z,-0.10
2018-02-10T00:11:06.052Z,-0.10
2018-02-10T00:12:08.161Z,-0.10
2018-02-10T00:13:05.789Z,-0.10
2018-02-10T00:14:05.356Z,-0.10
2018-02-10T00:15:05.764Z,-0.10
2018-02-10T00:16:09.849Z,-0.10
2018-02-10T00:17:05.279Z,-0.10
2018-02-10T00:18:10.654Z,-0.10
2018-02-10T00:19:06.140Z,-0.10
2018-02-10T00:20:05.643Z,-0.10
2018-02-10T00:21:07.719Z,-0.10
2018-02-10T00:22:05.654Z,-0.10
2018-02-10T00:23:06.040Z,-0.10
2018-02-10T00:24:05.181Z,-0.10
2018-02-10T00:25:08.553Z,-0.10
2018-02-10T00:26:11.106Z,-0.10
2018-02-10T00:27:05.547Z,-0.10
2018-02-10T00:28:05.409Z,-0.10
2018-02-10T00:29:05.634Z,-0.10
2018-02-10T00:30:05.582Z,-0.10
2018-02-10T00:31:06.278Z,-0.10
2018-02-10T00:32:08.721Z,-0.10
2018-02-10T00:33:05.206Z,-0.10
2018-02-10T00:34:05.617Z,-0.10
2018-02-10T00:35:07.732Z,-0.10
2018-02-10T00:36:10.149Z,-0.10
2018-02-10T00:37:07.773Z,-0.10
2018-02-10T00:38:08.687Z,-0.10
2018-02-10T00:39:05.145Z,-0.10
2018-02-10T00:40:05.800Z,-0.10
2018-02-10T00:41:05.303Z,0.00
2018-02-10T00:42:06.816Z,-0.10
2018-02-10T00:43:07.790Z,-0.10
2018-02-10T00:44:05.229Z,-0.10
2018-02-10T00:45:08.311Z,0.00
2018-02-10T00:46:05.795Z,0.00
2018-02-10T00:47:05.450Z,0.00
2018-02-10T00:48:05.606Z,-0.10
2018-02-10T00:49:05.603Z,-0.10
2018-02-10T00:50:10.886Z,-0.10
2018-02-10T00:51:05.268Z,0.00
2018-02-10T00:52:08.234Z,-0.10
2018-02-10T00:53:05.667Z,-0.10
2018-02-10T00:54:06.233Z,-0.10
2018-02-10T00:55:05.623Z,0.00
2018-02-10T00:56:05.934Z,0.00
2018-02-10T00:57:05.517Z,0.00
2018-02-10T00:58:05.491Z,-0.10
2018-02-10T00:59:08.236Z,0.00
2018-02-10T01:00:08.081Z,0.00
2018-02-10T01:01:05.471Z,0.00
2018-02-10T01:02:05.773Z,0.00
2018-02-10T01:03:07.859Z,0.00
2018-02-10T01:04:05.240Z,0.00
2018-02-10T01:05:05.688Z,0.00
2018-02-10T01:06:05.395Z,0.00
2018-02-10T01:07:05.696Z,0.00
2018-02-10T01:08:08.311Z,0.00
2018-02-10T01:09:05.870Z,-0.10
2018-02-10T01:10:07.936Z,0.00
2018-02-10T01:11:05.470Z,0.00
2018-02-10T01:12:05.363Z,0.00
2018-02-10T01:13:08.457Z,-0.10
2018-02-10T01:14:07.815Z,0.00
2018-02-10T01:15:05.467Z,0.00
2018-02-10T01:16:08.574Z,0.00
2018-02-10T01:17:08.551Z,-0.10
2018-02-10T01:18:08.465Z,0.00
2018-02-10T01:19:05.814Z,0.00
2018-02-10T01:20:05.190Z,0.00
2018-02-10T01:21:05.333Z,0.00
2018-02-10T01:22:06.246Z,0.00
2018-02-10T01:23:05.475Z,0.00
2018-02-10T01:24:06.813Z,0.00
2018-02-10T01:25:05.313Z,0.00
2018-02-10T01:26:05.954Z,0.00
2018-02-10T01:27:05.771Z,0.00
2018-02-10T01:28:05.915Z,0.00
2018-02-10T01:29:06.073Z,0.00
2018-02-10T01:30:05.278Z,0.00
2018-02-10T01:31:06.210Z,0.00
2018-02-10T01:32:05.795Z,0.00
2018-02-10T01:33:08.146Z,0.00
2018-02-10T01:34:05.670Z,0.00
2018-02-10T01:35:05.952Z,0.00
2018-02-10T01:36:10.438Z,0.00
2018-02-10T01:37:05.815Z,0.00
2018-02-10T01:38:10.855Z,0.00
2018-02-10T01:39:05.975Z,0.00
2018-02-10T01:40:06.105Z,0.00
2018-02-10T01:41:05.647Z,0.00
2018-02-10T01:42:08.150Z,0.00
2018-02-10T01:43:05.588Z,0.00
2018-02-10T01:44:05.127Z,0.00
2018-02-10T01:45:09.044Z,0.00
2018-02-10T01:46:08.505Z,0.00
2018-02-10T01:47:05.949Z,0.00
2018-02-10T01:48:06.103Z,0.00
2018-02-10T01:49:05.284Z,0.00
2018-02-10T01:50:07.783Z,0.00
2018-02-10T01:51:05.384Z,0.00
2018-02-10T01:52:08.637Z,0.00
2018-02-10T01:53:06.129Z,0.00
2018-02-10T01:54:08.737Z,0.00
2018-02-10T01:55:07.765Z,0.00
2018-02-10T01:56:05.112Z,0.00
2018-02-10T01:57:05.999Z,0.00
2018-02-10T01:58:05.505Z,0.00
2018-02-10T01:59:05.357Z,0.00
2018-02-10T02:00:08.128Z,0.00
2018-02-10T02:01:05.499Z,0.00
2018-02-10T02:02:06.037Z,-0.10
2018-02-10T02:03:10.526Z,0.00
2018-02-10T02:04:08.574Z,0.00
2018-02-10T02:05:06.037Z,0.00
2018-02-10T02:06:08.689Z,0.00
2018-02-10T02:07:05.257Z,0.00
2018-02-10T02:08:05.775Z,0.00
2018-02-10T02:09:08.127Z,0.00
2018-02-10T02:10:05.595Z,0.00
2018-02-10T02:11:08.122Z,0.00
2018-02-10T02:12:10.508Z,0.00
2018-02-10T02:13:05.639Z,0.00
2018-02-10T02:14:05.354Z,0.00
2018-02-10T02:15:05.638Z,0.00
2018-02-10T02:16:11.312Z,0.00
2018-02-10T02:17:05.730Z,0.00
2018-02-10T02:18:08.594Z,0.00
2018-02-10T02:19:06.056Z,0.00
2018-02-10T02:20:05.313Z,0.00
2018-02-10T02:21:05.574Z,0.00
2018-02-10T02:22:05.667Z,0.00
2018-02-10T02:23:06.032Z,0.00
2018-02-10T02:24:05.369Z,0.00
2018-02-10T02:25:06.190Z,0.00
2018-02-10T02:26:07.986Z,0.00
2018-02-10T02:27:07.726Z,0.00
2018-02-10T02:28:10.311Z,0.00
2018-02-10T02:29:10.342Z,0.00
2018-02-10T02:30:05.596Z,0.00
2018-02-10T02:31:05.155Z,0.00
2018-02-10T02:32:05.212Z,0.00
2018-02-10T02:33:06.082Z,0.00
2018-02-10T02:34:10.693Z,0.00
2018-02-10T02:35:06.069Z,0.00
2018-02-10T02:36:05.187Z,0.00
2018-02-10T02:37:10.459Z,0.00
2018-02-10T02:38:05.662Z,0.00
2018-02-10T02:39:05.278Z,0.00
2018-02-10T02:40:05.389Z,0.00
2018-02-10T02:41:06.140Z,0.00
2018-02-10T02:42:05.960Z,0.00
2018-02-10T02:43:05.661Z,0.00
2018-02-10T02:44:06.074Z,0.00
2018-02-10T02:45:05.579Z,0.00
2018-02-10T02:46:08.130Z,0.00
2018-02-10T02:47:10.662Z,0.00
2018-02-10T02:48:05.917Z,0.00
2018-02-10T02:49:05.475Z,0.00
2018-02-10T02:50:06.056Z,0.00
2018-02-10T02:51:05.740Z,0.00
2018-02-10T02:52:05.976Z,0.00
2018-02-10T02:53:05.296Z,0.00
2018-02-10T02:54:05.469Z,0.00
2018-02-10T02:55:06.165Z,0.00
2018-02-10T02:56:05.794Z,0.00
2018-02-10T02:57:05.349Z,0.00
2018-02-10T02:58:05.852Z,0.00
2018-02-10T02:59:11.155Z,0.00
2018-02-10T03:00:05.273Z,0.00
2018-02-10T03:01:05.126Z,0.00
2018-02-10T03:02:08.329Z,0.00
2018-02-10T03:03:05.810Z,0.00
2018-02-10T03:04:08.409Z,0.00
2018-02-10T03:05:05.556Z,0.00
2018-02-10T03:06:05.926Z,0.00
2018-02-10T03:07:08.724Z,0.00
2018-02-10T03:08:05.139Z,0.00
2018-02-10T03:09:05.733Z,0.00
2018-02-10T03:10:05.958Z,0.00
2018-02-10T03:11:05.537Z,0.00
2018-02-10T03:12:05.196Z,0.00
2018-02-10T03:13:05.250Z,0.00
2018-02-10T03:14:05.472Z,0.00
2018-02-10T03:15:08.388Z,0.00
2018-02-10T03:16:05.903Z,0.00
2018-02-10T03:17:05.845Z,0.00
2018-02-10T03:18:05.619Z,0.00
2018-02-10T03:19:08.863Z,0.00
2018-02-10T03:20:05.406Z,-0.10
2018-02-10T03:21:10.295Z,0.00
2018-02-10T03:22:05.493Z,0.00
2018-02-10T03:23:07.708Z,0.00
2018-02-10T03:24:05.708Z,0.00
2018-02-10T03:25:05.510Z,0.00
2018-02-10T03:26:05.681Z,0.00
2018-02-10T03:27:05.228Z,0.00
2018-02-10T03:28:06.473Z,0.00
2018-02-10T03:29:05.946Z,0.00
2018-02-10T03:30:05.436Z,-0.10
2018-02-10T03:31:06.220Z,-0.10
2018-02-10T03:32:10.581Z,-0.10
2018-02-10T03:33:05.647Z,0.00
2018-02-10T03:34:06.203Z,-0.10
2018-02-10T03:35:08.318Z,0.00
2018-02-10T03:36:05.720Z,-0.10
2018-02-10T03:37:05.212Z,-0.10
2018-02-10T03:38:05.590Z,0.00
2018-02-10T03:39:05.187Z,-0.10
2018-02-10T03:40:05.598Z,-0.10
2018-02-10T03:41:05.254Z,-0.10
2018-02-10T03:42:08.751Z,-0.10
2018-02-10T03:43:05.390Z,0.00
2018-02-10T03:44:05.514Z,-0.10
2018-02-10T03:45:06.092Z,-0.10
2018-02-10T03:46:10.635Z,-0.10
2018-02-10T03:47:05.126Z,-0.10
2018-02-10T03:48:10.848Z,-0.10
2018-02-10T03:49:05.358Z,-0.10
2018-02-10T03:50:10.775Z,-0.10
2018-02-10T03:51:05.287Z,-0.10
2018-02-10T03:52:06.283Z,-0.10
2018-02-10T03:53:05.437Z,-0.10
2018-02-10T03:54:05.614Z,-0.10
2018-02-10T03:55:06.103Z,-0.10
2018-02-10T03:56:10.734Z,-0.10
2018-02-10T03:57:07.726Z,-0.10
2018-02-10T03:58:06.215Z,-0.10
2018-02-10T03:59:06.058Z,-0.10
2018-02-10T04:00:08.415Z,-0.10
2018-02-10T04:01:06.201Z,-0.10
2018-02-10T04:02:05.783Z,-0.10
2018-02-10T04:03:05.090Z,-0.10
2018-02-10T04:04:10.591Z,-0.10
2018-02-10T04:05:05.694Z,-0.10
2018-02-10T04:06:05.766Z,-0.10
2018-02-10T04:07:10.466Z,-0.10
2018-02-10T04:08:05.634Z,-0.10
2018-02-10T04:09:11.090Z,-0.10
2018-02-10T04:10:07.937Z,-0.10
2018-02-10T04:11:05.409Z,-0.10
2018-02-10T04:12:10.544Z,-0.10
2018-02-10T04:13:05.686Z,-0.10
2018-02-10T04:14:06.178Z,-0.10
2018-02-10T04:15:08.770Z,-0.10
2018-02-10T04:16:05.247Z,-0.10
2018-02-10T04:17:10.971Z,-0.10
2018-02-10T04:18:06.317Z,-0.10
2018-02-10T04:19:13.159Z,-0.10
2018-02-10T04:20:10.677Z,-0.10
2018-02-10T04:21:06.257Z,-0.10
2018-02-10T04:22:05.148Z,-0.10
2018-02-10T04:23:05.742Z,-0.10
2018-02-10T04:24:08.244Z,-0.10
2018-02-10T04:25:05.873Z,-0.10
2018-02-10T04:26:05.547Z,-0.10
2018-02-10T04:27:05.156Z,-0.10
2018-02-10T04:28:05.429Z,-0.10
2018-02-10T04:29:11.157Z,-0.10
2018-02-10T04:30:05.587Z,-0.10
2018-02-10T04:31:05.341Z,0.00
2018-02-10T04:32:10.747Z,-0.10
2018-02-10T04:33:08.513Z,-0.10
2018-02-10T04:34:05.913Z,-0.10
2018-02-10T04:35:05.477Z,-0.10
2018-02-10T04:36:06.035Z,-0.10
2018-02-10T04:37:10.124Z,-0.10
2018-02-10T04:38:05.527Z,-0.10
2018-02-10T04:39:05.992Z,-0.10
2018-02-10T04:40:05.639Z,-0.10
2018-02-10T04:41:05.179Z,-0.10
2018-02-10T04:42:05.792Z,-0.10
2018-02-10T04:43:05.213Z,-0.10
2018-02-10T04:44:10.846Z,-0.10
2018-02-10T04:45:11.079Z,-0.10
2018-02-10T04:46:08.119Z,-0.10
2018-02-10T04:47:05.554Z,-0.10
2018-02-10T04:48:05.239Z,-0.10
2018-02-10T04:49:05.894Z,-0.10
2018-02-10T04:50:10.580Z,-0.10
2018-02-10T04:51:05.985Z,-0.10
2018-02-10T04:52:06.054Z,-0.10
2018-02-10T04:53:08.078Z,-0.10
2018-02-10T04:54:05.652Z,-0.10
2018-02-10T04:55:05.282Z,-0.10
2018-02-10T04:56:05.860Z,-0.10
2018-02-10T04:57:05.335Z,-0.10
2018-02-10T04:58:05.317Z,-0.10
2018-02-10T04:59:05.645Z,-0.10
2018-02-10T05:00:05.893Z,-0.10
2018-02-10T05:01:05.560Z,-0.10
2018-02-10T05:02:08.545Z,-0.10
2018-02-10T05:03:06.125Z,-0.10
2018-02-10T05:04:05.702Z,-0.10
2018-02-10T05:05:13.528Z,-0.10
2018-02-10T05:06:05.865Z,-0.10
2018-02-10T05:07:06.205Z,-0.10
2018-02-10T05:08:05.913Z,-0.10
2018-02-10T05:09:06.525Z,-0.10
2018-02-10T05:10:11.129Z,-0.10
2018-02-10T05:11:05.635Z,-0.10
2018-02-10T05:12:05.746Z,-0.10
2018-02-10T05:13:08.283Z,-0.10
2018-02-10T05:14:05.745Z,-0.10
2018-02-10T05:15:10.211Z,-0.10
2018-02-10T05:16:07.971Z,-0.10
2018-02-10T05:17:05.318Z,-0.10
2018-02-10T05:18:13.503Z,-0.10
2018-02-10T05:19:05.931Z,-0.10
2018-02-10T05:20:07.913Z,-0.10
2018-02-10T05:21:07.777Z,-0.10
2018-02-10T05:22:05.291Z,-0.10
2018-02-10T05:23:05.641Z,-0.10
2018-02-10T05:24:05.466Z,-0.10
2018-02-10T05:25:08.518Z,-0.10
2018-02-10T05:26:05.933Z,-0.10
2018-02-10T05:27:06.052Z,-0.10
2018-02-10T05:28:06.005Z,-0.10
2018-02-10T05:29:05.131Z,-0.10
2018-02-10T05:30:05.480Z,-0.20
2018-02-10T05:31:11.151Z,-0.10
2018-02-10T05:32:05.550Z,-0.20
2018-02-10T05:33:05.744Z,-0.10
2018-02-10T05:34:05.321Z,-0.20
2018-02-10T05:35:05.385Z,-0.20
2018-02-10T05:36:05.937Z,-0.20
2018-02-10T05:37:10.951Z,-0.20
2018-02-10T05:38:06.197Z,-0.10
2018-02-10T05:39:05.992Z,-0.20
2018-02-10T05:40:08.301Z,-0.20
2018-02-10T05:41:08.311Z,-0.20
2018-02-10T05:42:05.729Z,-0.20
2018-02-10T05:43:05.450Z,-0.20
2018-02-10T05:44:10.380Z,-0.10
2018-02-10T05:45:05.771Z,-0.10
2018-02-10T05:46:05.580Z,-0.10
2018-02-10T05:47:08.510Z,-0.10
2018-02-10T05:48:05.882Z,-0.10
2018-02-10T05:49:10.631Z,-0.10
2018-02-10T05:50:05.834Z,-0.10
2018-02-10T05:51:06.410Z,-0.10
2018-02-10T05:52:08.311Z,-0.10
2018-02-10T05:53:05.882Z,-0.20
2018-02-10T05:54:08.006Z,-0.10
2018-02-10T05:55:05.497Z,-0.10
2018-02-10T05:56:05.233Z,-0.10
2018-02-10T05:57:05.334Z,-0.10
2018-02-10T05:58:05.998Z,-0.10
2018-02-10T05:59:05.601Z,-0.20
2018-02-10T06:00:06.036Z,-0.10
2018-02-10T06:01:05.967Z,-0.10
2018-02-10T06:02:10.279Z,-0.10
2018-02-10T06:03:05.444Z,-0.10
2018-02-10T06:04:06.018Z,-0.10
2018-02-10T06:05:08.506Z,-0.10
2018-02-10T06:06:06.042Z,-0.10
2018-02-10T06:07:11.070Z,-0.10
2018-02-10T06:08:05.513Z,-0.10
2018-02-10T06:09:05.474Z,-0.10
2018-02-10T06:10:06.225Z,-0.10
2018-02-10T06:11:05.812Z,-0.10
2018-02-10T06:12:05.737Z,-0.10
2018-02-10T06:13:08.367Z,-0.10
2018-02-10T06:14:10.924Z,-0.10
2018-02-10T06:15:06.182Z,-0.10
2018-02-10T06:16:05.854Z,-0.10
2018-02-10T06:17:05.966Z,-0.10
2018-02-10T06:18:05.792Z,-0.10
2018-02-10T06:19:07.759Z,-0.10
2018-02-10T06:20:08.389Z,-0.10
2018-02-10T06:21:05.760Z,-0.10
2018-02-10T06:22:05.557Z,-0.20
2018-02-10T06:23:13.712Z,-0.10
2018-02-10T06:24:05.101Z,-0.10
2018-02-10T06:25:05.753Z,-0.20
2018-02-10T06:26:05.664Z,-0.20
2018-02-10T06:27:07.806Z,-0.20
2018-02-10T06:28:05.267Z,-0.20
2018-02-10T06:29:05.598Z,-0.20
2018-02-10T06:30:07.784Z,-0.20
2018-02-10T06:31:08.181Z,-0.20
2018-02-10T06:32:05.695Z,-0.20
2018-02-10T06:33:05.839Z,-0.20
2018-02-10T06:34:05.322Z,-0.20
2018-02-10T06:35:09.456Z,-0.20
2018-02-10T06:36:10.947Z,-0.20
2018-02-10T06:37:06.131Z,-0.20
2018-02-10T06:38:07.911Z,-0.20
2018-02-10T06:39:07.892Z,-0.10
2018-02-10T06:40:05.344Z,-0.10
2018-02-10T06:41:10.967Z,-0.10
2018-02-10T06:42:05.234Z,-0.10
2018-02-10T06:43:11.124Z,-0.10
2018-02-10T06:44:08.140Z,-0.10
2018-02-10T06:45:05.955Z,-0.10
2018-02-10T06:46:08.115Z,-0.20
2018-02-10T06:47:08.875Z,-0.10
2018-02-10T06:48:05.361Z,-0.10
2018-02-10T06:49:08.489Z,-0.10
2018-02-10T06:50:05.918Z,-0.10
2018-02-10T06:51:08.504Z,-0.10
2018-02-10T06:52:06.005Z,-0.10
2018-02-10T06:53:05.830Z,-0.10
2018-02-10T06:54:07.841Z,-0.10
2018-02-10T06:55:05.309Z,-0.10
2018-02-10T06:56:08.739Z,-0.10
2018-02-10T06:57:05.184Z,-0.10
2018-02-10T06:58:05.464Z,-0.10
2018-02-10T06:59:05.921Z,-0.10
2018-02-10T07:00:10.488Z,-0.10
2018-02-10T07:01:06.066Z,-0.10
2018-02-10T07:02:08.735Z,-0.10
2018-02-10T07:03:10.279Z,-0.10
2018-02-10T07:04:05.394Z,-0.10
2018-02-10T07:05:08.331Z,-0.10
2018-02-10T07:06:05.585Z,-0.10
2018-02-10T07:07:05.672Z,-0.10
2018-02-10T07:08:10.421Z,-0.10
2018-02-10T07:09:05.940Z,-0.10
2018-02-10T07:10:05.554Z,-0.10
2018-02-10T07:11:06.114Z,-0.10
2018-02-10T07:12:05.878Z,-0.10
2018-02-10T07:13:11.926Z,-0.10
2018-02-10T07:14:07.899Z,-0.10
2018-02-10T07:15:05.369Z,-0.10
2018-02-10T07:16:05.576Z,-0.10
2018-02-10T07:17:11.159Z,-0.10
2018-02-10T07:18:05.896Z,-0.10
2018-02-10T07:19:05.802Z,-0.10
2018-02-10T07:20:07.948Z,-0.10
2018-02-10T07:21:07.932Z,-0.10
2018-02-10T07:22:05.321Z,-0.10
2018-02-10T07:23:05.269Z,-0.10
2018-02-10T07:24:05.437Z,-0.10
2018-02-10T07:25:05.644Z,-0.10
2018-02-10T07:26:10.306Z,-0.10
2018-02-10T07:27:05.660Z,0.00
2018-02-10T07:28:08.389Z,-0.10
2018-02-10T07:29:18.505Z,-0.10
2018-02-10T07:30:05.916Z,-0.10
2018-02-10T07:31:08.096Z,-0.10
2018-02-10T07:32:08.093Z,-0.10
2018-02-10T07:33:05.214Z,-0.10
2018-02-10T07:34:05.389Z,-0.10
2018-02-10T07:35:08.128Z,0.00
2018-02-10T07:36:05.578Z,-0.10
2018-02-10T07:37:08.434Z,-0.10
2018-02-10T07:38:10.977Z,0.00
2018-02-10T07:39:06.442Z,0.00
2018-02-10T07:40:06.108Z,0.00
2018-02-10T07:41:05.623Z,0.00
2018-02-10T07:42:05.251Z,0.00
2018-02-10T07:43:05.444Z,0.00
2018-02-10T07:44:05.417Z,0.00
2018-02-10T07:45:11.095Z,0.00
2018-02-10T07:46:05.316Z,0.00
2018-02-10T07:47:05.859Z,0.00
2018-02-10T07:48:05.962Z,0.00
2018-02-10T07:49:11.096Z,0.00
2018-02-10T07:50:05.490Z,0.00
2018-02-10T07:51:07.662Z,0.00
2018-02-10T07:52:11.125Z,0.00
2018-02-10T07:53:05.629Z,0.00
2018-02-10T07:54:06.004Z,0.00
2018-02-10T07:55:10.642Z,0.00
2018-02-10T07:56:06.067Z,0.00
2018-02-10T07:57:08.358Z,0.00
2018-02-10T07:58:10.713Z,0.00
2018-02-10T07:59:06.006Z,0.00
2018-02-10T08:00:08.110Z,0.10
2018-02-10T08:01:05.488Z,0.10
2018-02-10T08:02:05.817Z,0.10
2018-02-10T08:03:09.395Z,0.10
2018-02-10T08:04:05.971Z,0.10
2018-02-10T08:05:05.988Z,0.10
2018-02-10T08:06:05.421Z,0.10
2018-02-10T08:07:05.908Z,0.10
2018-02-10T08:08:06.192Z,0.10
2018-02-10T08:09:05.901Z,0.10
2018-02-10T08:10:05.420Z,0.10
2018-02-10T08:11:06.011Z,0.10
2018-02-10T08:12:05.689Z,0.10
2018-02-10T08:13:08.885Z,0.10
2018-02-10T08:14:10.535Z,0.10
2018-02-10T08:15:05.807Z,0.20
2018-02-10T08:16:06.002Z,0.20
2018-02-10T08:17:05.871Z,0.20
2018-02-10T08:18:05.236Z,0.20
2018-02-10T08:19:05.868Z,0.20
2018-02-10T08:20:08.572Z,0.20
2018-02-10T08:21:08.461Z,0.20
2018-02-10T08:22:08.702Z,0.30
2018-02-10T08:23:05.119Z,0.20
2018-02-10T08:24:05.578Z,0.20
2018-02-10T08:25:06.008Z,0.30
2018-02-10T08:26:10.774Z,0.30
2018-02-10T08:27:05.247Z,0.20
2018-02-10T08:28:06.089Z,0.30
2018-02-10T08:29:05.757Z,0.30
2018-02-10T08:30:05.447Z,0.30
2018-02-10T08:31:08.621Z,0.30
2018-02-10T08:32:05.453Z,0.30
2018-02-10T08:33:05.566Z,0.30
2018-02-10T08:34:05.854Z,0.30
2018-02-10T08:35:08.502Z,0.30
2018-02-10T08:36:10.994Z,0.30
2018-02-10T08:37:05.359Z,0.30
2018-02-10T08:38:05.545Z,0.30
2018-02-10T08:39:05.778Z,0.30
2018-02-10T08:40:05.800Z,0.40
2018-02-10T08:41:05.875Z,0.40
2018-02-10T08:42:05.293Z,0.30
2018-02-10T08:43:05.865Z,0.40
2018-02-10T08:44:05.662Z,0.40
2018-02-10T08:45:05.895Z,0.40
2018-02-10T08:46:05.520Z,0.40
2018-02-10T08:47:05.131Z,0.40
2018-02-10T08:48:05.751Z,0.40
2018-02-10T08:49:05.425Z,0.40
2018-02-10T08:50:05.602Z,0.40
2018-02-10T08:51:05.305Z,0.40
2018-02-10T08:52:06.050Z,0.40
2018-02-10T08:53:07.961Z,0.40
2018-02-10T08:54:05.875Z,0.40
2018-02-10T08:55:05.793Z,0.40
2018-02-10T08:56:05.368Z,0.40
2018-02-10T08:57:06.190Z,0.50
2018-02-10T08:58:05.363Z,0.50
2018-02-10T08:59:05.786Z,0.50
2018-02-10T09:00:10.445Z,0.50
2018-02-10T09:01:05.952Z,0.50
2018-02-10T09:02:10.660Z,0.50
2018-02-10T09:03:16.379Z,0.50
2018-02-10T09:04:10.846Z,0.50
2018-02-10T09:05:06.025Z,0.50
2018-02-10T09:06:08.152Z,0.60
2018-02-10T09:07:08.372Z,0.60
2018-02-10T09:08:10.950Z,0.60
2018-02-10T09:09:05.559Z,0.60
2018-02-10T09:10:08.363Z,0.60
2018-02-10T09:11:05.835Z,0.60
2018-02-10T09:12:05.516Z,0.60
2018-02-10T09:13:05.683Z,0.60
2018-02-10T09:14:05.320Z,0.60
2018-02-10T09:15:08.555Z,0.60
2018-02-10T09:16:09.287Z,0.70
2018-02-10T09:17:08.308Z,0.70
2018-02-10T09:18:05.971Z,0.70
2018-02-10T09:19:05.842Z,0.70
2018-02-10T09:20:05.659Z,0.70
2018-02-10T09:21:07.874Z,0.70
2018-02-10T09:22:10.446Z,0.70
2018-02-10T09:23:10.663Z,0.80
2018-02-10T09:24:10.982Z,0.70
2018-02-10T09:25:08.189Z,0.80
2018-02-10T09:26:05.700Z,0.70
2018-02-10T09:27:05.846Z,0.80
2018-02-10T09:28:05.583Z,0.80
2018-02-10T09:29:05.242Z,0.80
2018-02-10T09:30:05.455Z,0.80
2018-02-10T09:31:11.038Z,0.80
2018-02-10T09:32:05.151Z,0.80
2018-02-10T09:33:05.475Z,0.80
2018-02-10T09:34:11.191Z,0.80
2018-02-10T09:35:05.545Z,0.80
2018-02-10T09:36:05.423Z,0.90
2018-02-10T09:37:10.875Z,0.90
2018-02-10T09:38:08.612Z,0.90
2018-02-10T09:39:06.062Z,0.90
2018-02-10T09:40:05.530Z,0.90
2018-02-10T09:41:08.630Z,0.90
2018-02-10T09:42:05.984Z,0.90
2018-02-10T09:43:06.209Z,1.00
2018-02-10T09:44:05.729Z,0.90
2018-02-10T09:45:10.279Z,1.00
2018-02-10T09:46:05.636Z,1.00
2018-02-10T09:47:05.532Z,1.00
2018-02-10T09:48:05.628Z,1.00
2018-02-10T09:49:05.775Z,1.00
2018-02-10T09:50:08.370Z,1.00
2018-02-10T09:51:06.039Z,1.00
2018-02-10T09:52:05.573Z,1.00
2018-02-10T09:53:05.578Z,1.10
2018-02-10T09:54:08.410Z,1.00
2018-02-10T09:55:08.740Z,1.10
2018-02-10T09:56:05.250Z,1.10
2018-02-10T09:57:05.455Z,1.10
2018-02-10T09:58:10.197Z,1.20
2018-02-10T09:59:05.583Z,1.10
2018-02-10T10:00:05.209Z,1.20
2018-02-10T10:01:05.974Z,1.20
2018-02-10T10:02:10.538Z,1.20
2018-02-10T10:03:06.005Z,1.20
2018-02-10T10:04:10.383Z,1.30
2018-02-10T10:05:10.464Z,1.30
2018-02-10T10:06:13.575Z,1.30
2018-02-10T10:07:08.686Z,1.30
2018-02-10T10:08:06.018Z,1.30
2018-02-10T10:09:05.940Z,1.30
2018-02-10T10:10:08.650Z,1.40
2018-02-10T10:11:11.040Z,1.40
2018-02-10T10:12:13.106Z,1.40
2018-02-10T10:13:05.522Z,1.40
2018-02-10T10:14:06.046Z,1.40
2018-02-10T10:15:10.772Z,1.50
2018-02-10T10:16:06.051Z,1.50
2018-02-10T10:17:06.109Z,1.50
2018-02-10T10:18:05.943Z,1.50
2018-02-10T10:19:06.038Z,1.50
2018-02-10T10:20:07.898Z,1.60
2018-02-10T10:21:05.352Z,1.60
2018-02-10T10:22:05.689Z,1.60
2018-02-10T10:23:06.217Z,1.60
2018-02-10T10:24:10.517Z,1.60
2018-02-10T10:25:05.267Z,1.60
2018-02-10T10:26:05.270Z,1.60
2018-02-10T10:27:05.119Z,1.60
2018-02-10T10:28:10.363Z,1.70
2018-02-10T10:29:08.234Z,1.70
2018-02-10T10:30:05.681Z,1.70
2018-02-10T10:31:10.469Z,1.70
2018-02-10T10:32:08.410Z,1.80
2018-02-10T10:33:05.917Z,1.80
2018-02-10T10:34:08.453Z,1.80
2018-02-10T10:35:08.920Z,1.80
2018-02-10T10:36:05.702Z,1.70
2018-02-10T10:37:05.995Z,1.80
2018-02-10T10:38:08.597Z,1.80
2018-02-10T10:39:06.163Z,1.80
2018-02-10T10:40:05.641Z,1.80
2018-02-10T10:41:10.340Z,1.80
2018-02-10T10:42:08.924Z,1.90
2018-02-10T10:43:05.600Z,1.90
2018-02-10T10:44:05.320Z,1.90
2018-02-10T10:45:05.868Z,1.90
2018-02-10T10:46:10.212Z,1.90
2018-02-10T10:47:05.385Z,1.90
2018-02-10T10:48:10.807Z,1.90
2018-02-10T10:49:06.270Z,1.90
2018-02-10T10:50:05.792Z,2.00
2018-02-10T10:51:05.434Z,2.00
2018-02-10T10:52:08.505Z,2.00
2018-02-10T10:53:11.142Z,2.00
2018-02-10T10:54:05.557Z,2.00
2018-02-10T10:55:11.150Z,2.10
2018-02-10T10:56:05.507Z,2.00
2018-02-10T10:57:11.045Z,2.10
2018-02-10T10:58:10.372Z,2.20
2018-02-10T10:59:05.515Z,2.20
2018-02-10T11:00:10.360Z,2.20
2018-02-10T11:01:05.877Z,2.20
2018-02-10T11:02:10.605Z,2.20
2018-02-10T11:03:11.090Z,2.30
2018-02-10T11:04:05.723Z,2.30
2018-02-10T11:05:05.921Z,2.30
2018-02-10T11:06:07.644Z,2.40
2018-02-10T11:07:08.605Z,2.40
2018-02-10T11:08:08.719Z,2.40
2018-02-10T11:09:05.307Z,2.40
2018-02-10T11:10:10.472Z,2.50
2018-02-10T11:11:10.586Z,2.50
2018-02-10T11:12:05.821Z,2.50
2018-02-10T11:13:06.116Z,2.60
2018-02-10T11:14:05.418Z,2.60
2018-02-10T11:15:05.517Z,2.70
2018-02-10T11:16:10.670Z,2.70
2018-02-10T11:17:05.983Z,2.70
2018-02-10T11:18:08.303Z,2.80
2018-02-10T11:19:08.588Z,2.90
2018-02-10T11:20:06.126Z,2.90
2018-02-10T11:21:05.866Z,2.90
2018-02-10T11:22:10.734Z,2.90
2018-02-10T11:23:07.956Z,3.00
2018-02-10T11:24:05.504Z,3.00
2018-02-10T11:25:05.994Z,3.00
2018-02-10T11:26:05.537Z,3.10
2018-02-10T11:27:10.240Z,3.10
2018-02-10T11:28:05.654Z,3.10
2018-02-10T11:29:05.566Z,3.20
2018-02-10T11:30:05.856Z,3.20
2018-02-10T11:31:05.705Z,3.20
2018-02-10T11:32:06.020Z,3.20
2018-02-10T11:33:11.447Z,3.20
2018-02-10T11:34:08.341Z,3.20
2018-02-10T11:35:08.721Z,3.20
2018-02-10T11:36:06.311Z,3.30
2018-02-10T11:37:08.427Z,3.30
2018-02-10T11:38:05.608Z,3.30
2018-02-10T11:39:05.915Z,3.30
2018-02-10T11:40:05.184Z,3.30
2018-02-10T11:41:09.070Z,3.30
2018-02-10T11:42:10.733Z,3.40
2018-02-10T11:43:05.231Z,3.40
2018-02-10T11:44:05.482Z,3.40
2018-02-10T11:45:06.332Z,3.40
2018-02-10T11:46:05.497Z,3.40
2018-02-10T11:47:08.700Z,3.50
2018-02-10T11:48:05.693Z,3.50
2018-02-10T11:49:06.103Z,3.50
2018-02-10T11:50:05.844Z,3.50
2018-02-10T11:51:05.469Z,3.50
2018-02-10T11:52:08.138Z,3.50
2018-02-10T11:53:05.857Z,3.50
2018-02-10T11:54:06.019Z,3.50
2018-02-10T11:55:05.379Z,3.50
2018-02-10T11:56:05.504Z,3.60
2018-02-10T11:57:06.187Z,3.60
2018-02-10T11:58:05.925Z,3.50
2018-02-10T11:59:08.177Z,3.60
2018-02-10T12:00:08.288Z,3.50
2018-02-10T12:01:10.946Z,3.50
2018-02-10T12:02:05.425Z,3.50
2018-02-10T12:03:06.049Z,3.50
2018-02-10T12:04:08.282Z,3.50
2018-02-10T12:05:08.264Z,3.50
2018-02-10T12:06:10.779Z,3.50
2018-02-10T12:07:05.928Z,3.50
2018-02-10T12:08:08.647Z,3.50
2018-02-10T12:09:08.729Z,3.60
2018-02-10T12:10:05.218Z,3.60
2018-02-10T12:11:06.023Z,3.60
2018-02-10T12:12:06.052Z,3.70
2018-02-10T12:13:05.590Z,3.60
2018-02-10T12:14:05.385Z,3.70
2018-02-10T12:15:05.636Z,3.70
2018-02-10T12:16:08.366Z,3.80
2018-02-10T12:17:06.159Z,3.80
2018-02-10T12:18:05.877Z,3.80
2018-02-10T12:19:05.391Z,3.90
2018-02-10T12:20:10.410Z,3.90
2018-02-10T12:21:08.326Z,3.90
2018-02-10T12:22:05.879Z,3.90
2018-02-10T12:23:05.457Z,3.90
2018-02-10T12:24:05.880Z,4.00
2018-02-10T12:25:05.578Z,4.00
2018-02-10T12:26:05.702Z,4.10
2018-02-10T12:27:05.876Z,4.10
2018-02-10T12:28:05.112Z,4.10
2018-02-10T12:29:05.833Z,4.20
2018-02-10T12:30:08.000Z,4.10
2018-02-10T12:31:05.515Z,4.10
2018-02-10T12:32:08.456Z,4.10
2018-02-10T12:33:05.190Z,4.10
2018-02-10T12:34:05.792Z,4.10
2018-02-10T12:35:05.591Z,4.20
2018-02-10T12:36:08.592Z,4.10
2018-02-10T12:37:11.122Z,4.10
2018-02-10T12:38:05.444Z,4.10
2018-02-10T12:39:05.688Z,4.10
2018-02-10T12:40:07.933Z,4.10
2018-02-10T12:41:08.069Z,4.10
2018-02-10T12:42:05.513Z,4.10
2018-02-10T12:43:12.771Z,4.10
2018-02-10T12:44:08.732Z,4.10
2018-02-10T12:45:05.772Z,4.00
2018-02-10T12:46:11.161Z,4.10
2018-02-10T12:47:05.477Z,4.10
2018-02-10T12:48:06.122Z,4.10
2018-02-10T12:49:05.541Z,4.10
2018-02-10T12:50:08.039Z,4.10
2018-02-10T12:51:05.646Z,4.10
2018-02-10T12:52:13.079Z,4.10
2018-02-10T12:53:05.551Z,4.10
2018-02-10T12:54:05.863Z,4.00
2018-02-10T12:55:06.077Z,4.10
2018-02-10T12:56:05.462Z,4.00
2018-02-10T12:57:07.633Z,4.00
2018-02-10T12:58:08.561Z,4.00
2018-02-10T12:59:06.022Z,4.00
2018-02-10T13:00:12.946Z,4.00
2018-02-10T13:01:10.375Z,4.00
2018-02-10T13:02:05.785Z,4.00
2018-02-10T13:03:05.933Z,4.00
2018-02-10T13:04:05.556Z,4.00
2018-02-10T13:05:05.905Z,4.00
2018-02-10T13:06:05.435Z,4.00
2018-02-10T13:07:06.119Z,4.00
2018-02-10T13:08:09.047Z,4.00